aviador You're here:

KDAN Decoded Metar

DANVILLE in VA, USA
Report Time2017-12-11 08:53:00
UTC Time2017-12-11 09:07:57
Flight Rules vfr VFR
Wind210° at 04 kt
W.Decomp.*RWY 20: 3.8 kt HW 1.3 kt RCW
RWY 13: 0.1 kt HW 4.0 kt RCW
W.Rank210° ranks 2
Current wind is below 210° avg. (4.8)
Visibility9999 m
Phenomena:N/A
Clouds:N/A
Expected CloudBase > 800 ft AGL from Temp-Dew spread
CeilingNone
Temp-4°C (ISA -18)
Dew Point-6°C (86% RH)
AAT-8.2°C
QNH1019 hPa
Density Alt-1,775 ft
Elevation574 ft
Report Wrong Elevation
Raw Report
METAR KDAN 110853Z AUTO 21004KT 10SM CLR M04/M06 A3010 RMK AO2 SLP190
T10391056 58004=

Extra information for KDAN:More info

Metar Taf Metar & Taf Last 4 Metars F.Rules Stats Wind Profile Meteogram Temp Stats Airport Information Weather charts Add Link Nearby VenuesMetar ALERT Operation Metar Decoded Social comments

AIRNAV info for KDAN